sensor_id;sensor_type;location;lat;lon;timestamp;P1;durP1;ratioP1;P2;durP2;ratioP2
75171;SDS011;63750;52.418;20.742;2023-05-07T00:02:03;7.70;;;6.90;;
75171;SDS011;63750;52.418;20.742;2023-05-07T00:04:30;7.40;;;6.50;;
75171;SDS011;63750;52.418;20.742;2023-05-07T00:06:57;7.10;;;6.40;;
75171;SDS011;63750;52.418;20.742;2023-05-07T00:09:24;7.30;;;6.40;;
75171;SDS011;63750;52.418;20.742;2023-05-07T00:11:51;7.60;;;6.60;;
75171;SDS011;63750;52.418;20.742;2023-05-07T00:14:18;7.00;;;6.30;;
75171;SDS011;63750;52.418;20.742;2023-05-07T00:16:45;8.50;;;6.20;;
75171;SDS011;63750;52.418;20.742;2023-05-07T00:19:12;6.90;;;6.30;;
75171;SDS011;63750;52.418;20.742;2023-05-07T00:21:39;6.90;;;6.20;;
75171;SDS011;63750;52.418;20.742;2023-05-07T00:24:07;7.40;;;6.70;;
75171;SDS011;63750;52.418;20.742;2023-05-07T00:26:34;6.90;;;6.20;;
75171;SDS011;63750;52.418;20.742;2023-05-07T00:29:01;6.90;;;6.20;;
75171;SDS011;63750;52.418;20.742;2023-05-07T00:31:28;7.20;;;6.10;;
75171;SDS011;63750;52.418;20.742;2023-05-07T00:33:55;6.50;;;5.80;;
75171;SDS011;63750;52.418;20.742;2023-05-07T00:36:22;6.60;;;6.00;;
75171;SDS011;63750;52.418;20.742;2023-05-07T00:38:49;7.00;;;6.30;;
75171;SDS011;63750;52.418;20.742;2023-05-07T00:41:16;6.70;;;6.10;;
75171;SDS011;63750;52.418;20.742;2023-05-07T00:43:43;6.30;;;5.80;;
75171;SDS011;63750;52.418;20.742;2023-05-07T00:46:11;6.50;;;5.90;;
75171;SDS011;63750;52.418;20.742;2023-05-07T00:48:39;6.30;;;5.70;;
75171;SDS011;63750;52.418;20.742;2023-05-07T00:51:06;7.40;;;6.20;;
75171;SDS011;63750;52.418;20.742;2023-05-07T00:53:33;7.00;;;6.30;;
75171;SDS011;63750;52.418;20.742;2023-05-07T00:56:01;6.60;;;6.00;;
75171;SDS011;63750;52.418;20.742;2023-05-07T00:58:28;6.50;;;5.70;;
75171;SDS011;63750;52.418;20.742;2023-05-07T01:00:55;6.20;;;5.60;;
75171;SDS011;63750;52.418;20.742;2023-05-07T01:03:22;6.30;;;5.70;;
75171;SDS011;63750;52.418;20.742;2023-05-07T01:05:49;8.20;;;6.50;;
75171;SDS011;63750;52.418;20.742;2023-05-07T01:08:18;7.00;;;6.30;;
75171;SDS011;63750;52.418;20.742;2023-05-07T01:10:46;7.30;;;6.20;;
75171;SDS011;63750;52.418;20.742;2023-05-07T01:13:13;6.90;;;5.70;;
75171;SDS011;63750;52.418;20.742;2023-05-07T01:15:41;6.80;;;5.90;;
75171;SDS011;63750;52.418;20.742;2023-05-07T01:18:09;7.10;;;5.40;;
75171;SDS011;63750;52.418;20.742;2023-05-07T01:20:36;6.00;;;5.50;;
75171;SDS011;63750;52.418;20.742;2023-05-07T01:23:04;6.80;;;5.90;;
75171;SDS011;63750;52.418;20.742;2023-05-07T01:25:32;6.40;;;5.80;;
75171;SDS011;63750;52.418;20.742;2023-05-07T01:28:00;6.40;;;5.80;;
75171;SDS011;63750;52.418;20.742;2023-05-07T01:30:27;6.40;;;5.80;;
75171;SDS011;63750;52.418;20.742;2023-05-07T01:32:58;6.80;;;5.40;;
75171;SDS011;63750;52.418;20.742;2023-05-07T01:35:29;5.90;;;5.30;;
75171;SDS011;63750;52.418;20.742;2023-05-07T01:38:00;6.60;;;6.00;;
75171;SDS011;63750;52.418;20.742;2023-05-07T01:40:27;5.80;;;5.20;;
75171;SDS011;63750;52.418;20.742;2023-05-07T01:42:55;6.30;;;5.70;;
75171;SDS011;63750;52.418;20.742;2023-05-07T01:45:22;5.90;;;5.30;;
75171;SDS011;63750;52.418;20.742;2023-05-07T01:47:50;5.50;;;5.00;;
75171;SDS011;63750;52.418;20.742;2023-05-07T01:50:19;7.00;;;5.40;;
75171;SDS011;63750;52.418;20.742;2023-05-07T01:52:46;5.80;;;5.00;;
75171;SDS011;63750;52.418;20.742;2023-05-07T01:55:15;5.80;;;5.20;;
75171;SDS011;63750;52.418;20.742;2023-05-07T01:57:42;5.50;;;5.00;;
75171;SDS011;63750;52.418;20.742;2023-05-07T02:00:10;5.60;;;5.10;;
75171;SDS011;63750;52.418;20.742;2023-05-07T02:02:38;5.40;;;4.90;;
75171;SDS011;63750;52.418;20.742;2023-05-07T02:05:06;5.20;;;4.70;;
75171;SDS011;63750;52.418;20.742;2023-05-07T02:07:34;5.70;;;5.10;;
75171;SDS011;63750;52.418;20.742;2023-05-07T02:10:05;5.10;;;4.60;;
75171;SDS011;63750;52.418;20.742;2023-05-07T02:12:33;4.70;;;4.30;;
75171;SDS011;63750;52.418;20.742;2023-05-07T02:15:00;4.80;;;4.40;;
75171;SDS011;63750;52.418;20.742;2023-05-07T02:17:27;5.10;;;4.60;;
75171;SDS011;63750;52.418;20.742;2023-05-07T02:19:54;7.10;;;4.50;;
75171;SDS011;63750;52.418;20.742;2023-05-07T02:22:21;5.10;;;4.60;;
75171;SDS011;63750;52.418;20.742;2023-05-07T02:24:48;4.80;;;4.40;;
75171;SDS011;63750;52.418;20.742;2023-05-07T02:27:15;4.60;;;4.20;;
75171;SDS011;63750;52.418;20.742;2023-05-07T02:29:42;4.80;;;4.10;;
75171;SDS011;63750;52.418;20.742;2023-05-07T02:32:09;4.90;;;4.40;;
75171;SDS011;63750;52.418;20.742;2023-05-07T02:34:36;4.70;;;4.30;;
75171;SDS011;63750;52.418;20.742;2023-05-07T02:37:03;5.10;;;4.30;;
75171;SDS011;63750;52.418;20.742;2023-05-07T02:39:31;4.80;;;4.40;;
75171;SDS011;63750;52.418;20.742;2023-05-07T02:41:58;4.30;;;3.90;;
75171;SDS011;63750;52.418;20.742;2023-05-07T02:44:24;4.60;;;4.20;;
75171;SDS011;63750;52.418;20.742;2023-05-07T02:46:51;4.60;;;4.20;;
75171;SDS011;63750;52.418;20.742;2023-05-07T02:49:18;4.30;;;3.90;;
75171;SDS011;63750;52.418;20.742;2023-05-07T02:51:45;4.20;;;3.90;;
75171;SDS011;63750;52.418;20.742;2023-05-07T02:54:13;3.90;;;3.60;;
75171;SDS011;63750;52.418;20.742;2023-05-07T02:56:39;4.60;;;4.20;;
75171;SDS011;63750;52.418;20.742;2023-05-07T02:59:06;4.50;;;3.90;;
75171;SDS011;63750;52.418;20.742;2023-05-07T03:01:34;4.10;;;3.70;;
75171;SDS011;63750;52.418;20.742;2023-05-07T03:04:01;4.70;;;3.80;;
75171;SDS011;63750;52.418;20.742;2023-05-07T03:06:28;4.20;;;3.90;;
75171;SDS011;63750;52.418;20.742;2023-05-07T03:08:55;5.10;;;4.20;;
75171;SDS011;63750;52.418;20.742;2023-05-07T03:11:22;4.70;;;3.90;;
75171;SDS011;63750;52.418;20.742;2023-05-07T03:13:49;4.30;;;3.90;;
75171;SDS011;63750;52.418;20.742;2023-05-07T03:16:16;4.10;;;3.70;;
75171;SDS011;63750;52.418;20.742;2023-05-07T03:18:43;4.20;;;3.80;;
75171;SDS011;63750;52.418;20.742;2023-05-07T03:21:10;4.40;;;3.60;;
75171;SDS011;63750;52.418;20.742;2023-05-07T03:23:38;3.90;;;3.50;;
75171;SDS011;63750;52.418;20.742;2023-05-07T03:26:05;4.10;;;3.60;;
75171;SDS011;63750;52.418;20.742;2023-05-07T03:28:32;4.20;;;3.80;;
75171;SDS011;63750;52.418;20.742;2023-05-07T03:30:59;4.40;;;3.90;;
75171;SDS011;63750;52.418;20.742;2023-05-07T03:33:26;4.20;;;3.80;;
75171;SDS011;63750;52.418;20.742;2023-05-07T03:35:53;3.70;;;3.40;;
75171;SDS011;63750;52.418;20.742;2023-05-07T03:38:20;5.00;;;4.50;;
75171;SDS011;63750;52.418;20.742;2023-05-07T03:40:47;4.10;;;3.50;;
75171;SDS011;63750;52.418;20.742;2023-05-07T03:43:14;4.90;;;4.50;;
75171;SDS011;63750;52.418;20.742;2023-05-07T03:45:41;4.20;;;3.90;;
75171;SDS011;63750;52.418;20.742;2023-05-07T03:48:08;4.40;;;4.00;;
75171;SDS011;63750;52.418;20.742;2023-05-07T03:50:35;4.30;;;3.90;;
75171;SDS011;63750;52.418;20.742;2023-05-07T03:53:03;4.50;;;4.10;;
75171;SDS011;63750;52.418;20.742;2023-05-07T03:55:30;4.20;;;3.80;;
75171;SDS011;63750;52.418;20.742;2023-05-07T03:57:57;4.10;;;3.80;;
75171;SDS011;63750;52.418;20.742;2023-05-07T04:00:24;4.00;;;3.70;;
75171;SDS011;63750;52.418;20.742;2023-05-07T04:02:52;4.50;;;3.50;;
75171;SDS011;63750;52.418;20.742;2023-05-07T04:05:19;5.10;;;4.00;;
75171;SDS011;63750;52.418;20.742;2023-05-07T04:07:46;4.10;;;3.70;;
75171;SDS011;63750;52.418;20.742;2023-05-07T04:10:13;5.50;;;3.70;;
75171;SDS011;63750;52.418;20.742;2023-05-07T04:12:43;4.60;;;4.10;;
75171;SDS011;63750;52.418;20.742;2023-05-07T04:15:10;4.10;;;3.70;;
75171;SDS011;63750;52.418;20.742;2023-05-07T04:17:37;4.00;;;3.70;;
75171;SDS011;63750;52.418;20.742;2023-05-07T04:20:06;5.00;;;4.50;;
75171;SDS011;63750;52.418;20.742;2023-05-07T04:22:34;4.40;;;3.80;;
75171;SDS011;63750;52.418;20.742;2023-05-07T04:25:02;4.30;;;4.00;;
75171;SDS011;63750;52.418;20.742;2023-05-07T04:27:29;3.90;;;3.50;;
75171;SDS011;63750;52.418;20.742;2023-05-07T04:29:56;3.50;;;3.20;;
75171;SDS011;63750;52.418;20.742;2023-05-07T04:32:23;4.30;;;3.90;;
75171;SDS011;63750;52.418;20.742;2023-05-07T04:34:50;4.60;;;3.90;;
75171;SDS011;63750;52.418;20.742;2023-05-07T04:37:17;4.20;;;3.80;;
75171;SDS011;63750;52.418;20.742;2023-05-07T04:39:44;4.30;;;3.90;;
75171;SDS011;63750;52.418;20.742;2023-05-07T04:42:14;4.70;;;4.20;;
75171;SDS011;63750;52.418;20.742;2023-05-07T04:44:42;3.80;;;3.50;;
75171;SDS011;63750;52.418;20.742;2023-05-07T04:47:10;4.70;;;4.20;;
75171;SDS011;63750;52.418;20.742;2023-05-07T04:49:37;4.50;;;4.00;;
75171;SDS011;63750;52.418;20.742;2023-05-07T04:52:04;4.10;;;3.80;;
75171;SDS011;63750;52.418;20.742;2023-05-07T04:54:32;4.40;;;4.00;;
75171;SDS011;63750;52.418;20.742;2023-05-07T04:56:59;3.90;;;3.60;;
75171;SDS011;63750;52.418;20.742;2023-05-07T04:59:25;4.00;;;3.70;;
75171;SDS011;63750;52.418;20.742;2023-05-07T05:01:53;4.20;;;3.90;;
75171;SDS011;63750;52.418;20.742;2023-05-07T05:04:20;4.90;;;4.50;;
75171;SDS011;63750;52.418;20.742;2023-05-07T05:06:46;5.20;;;4.30;;
75171;SDS011;63750;52.418;20.742;2023-05-07T05:09:13;5.00;;;4.00;;
75171;SDS011;63750;52.418;20.742;2023-05-07T05:11:40;5.60;;;3.90;;
75171;SDS011;63750;52.418;20.742;2023-05-07T05:14:07;3.90;;;3.50;;
75171;SDS011;63750;52.418;20.742;2023-05-07T05:16:35;4.30;;;3.90;;
75171;SDS011;63750;52.418;20.742;2023-05-07T05:19:02;4.40;;;4.10;;
75171;SDS011;63750;52.418;20.742;2023-05-07T05:21:29;4.60;;;4.20;;
75171;SDS011;63750;52.418;20.742;2023-05-07T05:23:57;4.20;;;3.80;;
75171;SDS011;63750;52.418;20.742;2023-05-07T05:26:24;4.40;;;4.00;;
75171;SDS011;63750;52.418;20.742;2023-05-07T05:28:51;4.60;;;4.20;;
75171;SDS011;63750;52.418;20.742;2023-05-07T05:31:18;5.40;;;4.90;;
75171;SDS011;63750;52.418;20.742;2023-05-07T05:33:45;4.70;;;4.30;;
75171;SDS011;63750;52.418;20.742;2023-05-07T05:36:12;4.40;;;4.00;;
75171;SDS011;63750;52.418;20.742;2023-05-07T05:38:39;4.30;;;3.90;;
75171;SDS011;63750;52.418;20.742;2023-05-07T05:41:06;4.80;;;4.30;;
75171;SDS011;63750;52.418;20.742;2023-05-07T05:43:33;4.70;;;4.30;;
75171;SDS011;63750;52.418;20.742;2023-05-07T05:46:00;4.40;;;4.00;;
75171;SDS011;63750;52.418;20.742;2023-05-07T05:48:28;4.30;;;3.90;;
75171;SDS011;63750;52.418;20.742;2023-05-07T05:50:55;4.00;;;3.70;;
75171;SDS011;63750;52.418;20.742;2023-05-07T05:53:23;4.10;;;3.70;;
75171;SDS011;63750;52.418;20.742;2023-05-07T05:55:49;4.00;;;3.60;;
75171;SDS011;63750;52.418;20.742;2023-05-07T05:58:16;4.20;;;3.80;;
75171;SDS011;63750;52.418;20.742;2023-05-07T06:00:44;4.40;;;4.00;;
75171;SDS011;63750;52.418;20.742;2023-05-07T06:03:11;4.50;;;4.10;;
75171;SDS011;63750;52.418;20.742;2023-05-07T06:05:38;4.50;;;4.10;;
75171;SDS011;63750;52.418;20.742;2023-05-07T06:08:05;4.70;;;4.30;;
75171;SDS011;63750;52.418;20.742;2023-05-07T06:10:32;4.50;;;3.70;;
75171;SDS011;63750;52.418;20.742;2023-05-07T06:12:59;4.70;;;4.00;;
75171;SDS011;63750;52.418;20.742;2023-05-07T06:15:26;4.50;;;4.10;;
75171;SDS011;63750;52.418;20.742;2023-05-07T06:17:53;4.50;;;4.10;;
75171;SDS011;63750;52.418;20.742;2023-05-07T06:20:20;3.80;;;3.40;;
75171;SDS011;63750;52.418;20.742;2023-05-07T06:22:48;4.60;;;4.10;;
75171;SDS011;63750;52.418;20.742;2023-05-07T06:25:15;3.90;;;3.60;;
75171;SDS011;63750;52.418;20.742;2023-05-07T06:27:42;4.00;;;3.70;;
75171;SDS011;63750;52.418;20.742;2023-05-07T06:30:09;3.90;;;3.60;;
75171;SDS011;63750;52.418;20.742;2023-05-07T06:32:37;4.10;;;3.70;;
75171;SDS011;63750;52.418;20.742;2023-05-07T06:35:06;3.80;;;3.50;;
75171;SDS011;63750;52.418;20.742;2023-05-07T06:37:34;3.90;;;3.40;;
75171;SDS011;63750;52.418;20.742;2023-05-07T06:40:01;3.70;;;3.40;;
75171;SDS011;63750;52.418;20.742;2023-05-07T06:42:29;3.80;;;3.50;;
75171;SDS011;63750;52.418;20.742;2023-05-07T06:44:56;3.90;;;3.60;;
75171;SDS011;63750;52.418;20.742;2023-05-07T06:47:23;4.40;;;3.70;;
75171;SDS011;63750;52.418;20.742;2023-05-07T06:49:50;4.20;;;3.90;;
75171;SDS011;63750;52.418;20.742;2023-05-07T06:52:17;5.20;;;4.40;;
75171;SDS011;63750;52.418;20.742;2023-05-07T06:54:44;5.80;;;3.70;;
75171;SDS011;63750;52.418;20.742;2023-05-07T06:57:11;4.10;;;3.10;;
75171;SDS011;63750;52.418;20.742;2023-05-07T06:59:38;3.90;;;3.50;;
75171;SDS011;63750;52.418;20.742;2023-05-07T07:02:05;5.00;;;3.40;;
75171;SDS011;63750;52.418;20.742;2023-05-07T07:04:32;3.70;;;3.40;;
75171;SDS011;63750;52.418;20.742;2023-05-07T07:06:59;4.00;;;3.60;;
75171;SDS011;63750;52.418;20.742;2023-05-07T07:09:26;4.30;;;3.50;;
75171;SDS011;63750;52.418;20.742;2023-05-07T07:11:53;3.80;;;3.50;;
75171;SDS011;63750;52.418;20.742;2023-05-07T07:14:20;3.80;;;3.50;;
75171;SDS011;63750;52.418;20.742;2023-05-07T07:16:47;4.60;;;3.60;;
75171;SDS011;63750;52.418;20.742;2023-05-07T07:19:14;4.70;;;3.60;;
75171;SDS011;63750;52.418;20.742;2023-05-07T07:21:41;3.70;;;3.40;;
75171;SDS011;63750;52.418;20.742;2023-05-07T07:24:08;3.90;;;3.60;;
75171;SDS011;63750;52.418;20.742;2023-05-07T07:26:35;3.80;;;3.50;;
75171;SDS011;63750;52.418;20.742;2023-05-07T07:29:02;3.80;;;3.50;;
75171;SDS011;63750;52.418;20.742;2023-05-07T07:31:29;4.00;;;3.40;;
75171;SDS011;63750;52.418;20.742;2023-05-07T07:33:56;3.60;;;3.30;;
75171;SDS011;63750;52.418;20.742;2023-05-07T07:36:23;4.90;;;3.60;;
75171;SDS011;63750;52.418;20.742;2023-05-07T07:38:50;3.50;;;3.20;;
75171;SDS011;63750;52.418;20.742;2023-05-07T07:41:17;4.60;;;4.20;;
75171;SDS011;63750;52.418;20.742;2023-05-07T07:43:44;4.10;;;3.80;;
75171;SDS011;63750;52.418;20.742;2023-05-07T07:46:11;3.40;;;3.10;;
75171;SDS011;63750;52.418;20.742;2023-05-07T07:48:38;3.40;;;3.10;;
75171;SDS011;63750;52.418;20.742;2023-05-07T07:51:06;4.60;;;3.70;;
75171;SDS011;63750;52.418;20.742;2023-05-07T07:53:33;3.80;;;3.50;;
75171;SDS011;63750;52.418;20.742;2023-05-07T07:55:59;3.70;;;3.30;;
75171;SDS011;63750;52.418;20.742;2023-05-07T07:58:26;4.20;;;3.60;;
75171;SDS011;63750;52.418;20.742;2023-05-07T08:00:54;3.50;;;3.20;;
75171;SDS011;63750;52.418;20.742;2023-05-07T08:03:21;3.80;;;3.50;;
75171;SDS011;63750;52.418;20.742;2023-05-07T08:05:48;4.20;;;3.80;;
75171;SDS011;63750;52.418;20.742;2023-05-07T08:08:15;3.50;;;3.20;;
75171;SDS011;63750;52.418;20.742;2023-05-07T08:10:42;3.90;;;3.60;;
75171;SDS011;63750;52.418;20.742;2023-05-07T08:13:09;5.10;;;3.50;;
75171;SDS011;63750;52.418;20.742;2023-05-07T08:15:36;4.00;;;3.40;;
75171;SDS011;63750;52.418;20.742;2023-05-07T08:18:06;4.80;;;3.40;;
75171;SDS011;63750;52.418;20.742;2023-05-07T08:20:33;3.30;;;3.00;;
75171;SDS011;63750;52.418;20.742;2023-05-07T08:23:00;3.30;;;3.00;;
75171;SDS011;63750;52.418;20.742;2023-05-07T08:25:27;3.80;;;3.50;;
75171;SDS011;63750;52.418;20.742;2023-05-07T08:27:55;3.70;;;3.30;;
75171;SDS011;63750;52.418;20.742;2023-05-07T08:30:22;3.60;;;3.30;;
75171;SDS011;63750;52.418;20.742;2023-05-07T08:32:49;3.60;;;3.30;;
75171;SDS011;63750;52.418;20.742;2023-05-07T08:35:16;3.90;;;3.20;;
75171;SDS011;63750;52.418;20.742;2023-05-07T08:37:42;3.60;;;3.30;;
75171;SDS011;63750;52.418;20.742;2023-05-07T08:40:10;4.60;;;3.20;;
75171;SDS011;63750;52.418;20.742;2023-05-07T08:42:38;3.20;;;3.00;;
75171;SDS011;63750;52.418;20.742;2023-05-07T08:45:09;4.10;;;3.30;;
75171;SDS011;63750;52.418;20.742;2023-05-07T08:47:40;3.90;;;3.30;;
75171;SDS011;63750;52.418;20.742;2023-05-07T08:50:10;3.90;;;3.40;;
75171;SDS011;63750;52.418;20.742;2023-05-07T08:52:37;3.60;;;3.30;;
75171;SDS011;63750;52.418;20.742;2023-05-07T08:55:05;3.60;;;3.30;;
75171;SDS011;63750;52.418;20.742;2023-05-07T08:57:34;3.70;;;3.40;;
75171;SDS011;63750;52.418;20.742;2023-05-07T09:00:01;4.00;;;3.60;;
75171;SDS011;63750;52.418;20.742;2023-05-07T09:02:29;3.70;;;3.40;;
75171;SDS011;63750;52.418;20.742;2023-05-07T09:04:56;3.30;;;3.00;;
75171;SDS011;63750;52.418;20.742;2023-05-07T09:07:23;3.90;;;3.50;;
75171;SDS011;63750;52.418;20.742;2023-05-07T09:09:50;3.50;;;3.20;;
75171;SDS011;63750;52.418;20.742;2023-05-07T09:12:18;3.90;;;3.20;;
75171;SDS011;63750;52.418;20.742;2023-05-07T09:14:46;4.70;;;3.20;;
75171;SDS011;63750;52.418;20.742;2023-05-07T09:17:14;3.50;;;3.20;;
75171;SDS011;63750;52.418;20.742;2023-05-07T09:19:42;3.70;;;3.20;;
75171;SDS011;63750;52.418;20.742;2023-05-07T09:22:10;3.40;;;3.10;;
75171;SDS011;63750;52.418;20.742;2023-05-07T09:24:37;3.90;;;2.90;;
75171;SDS011;63750;52.418;20.742;2023-05-07T09:27:05;3.40;;;3.00;;
75171;SDS011;63750;52.418;20.742;2023-05-07T09:29:33;3.70;;;3.30;;
75171;SDS011;63750;52.418;20.742;2023-05-07T09:32:00;4.10;;;3.60;;
75171;SDS011;63750;52.418;20.742;2023-05-07T09:34:27;3.30;;;3.00;;
75171;SDS011;63750;52.418;20.742;2023-05-07T09:36:54;3.30;;;3.00;;
75171;SDS011;63750;52.418;20.742;2023-05-07T09:39:21;3.50;;;3.20;;
75171;SDS011;63750;52.418;20.742;2023-05-07T09:41:48;3.60;;;3.30;;
75171;SDS011;63750;52.418;20.742;2023-05-07T09:44:15;3.40;;;3.00;;
75171;SDS011;63750;52.418;20.742;2023-05-07T09:46:43;3.90;;;3.60;;
75171;SDS011;63750;52.418;20.742;2023-05-07T09:49:16;4.10;;;3.70;;
75171;SDS011;63750;52.418;20.742;2023-05-07T09:51:48;5.70;;;3.40;;
75171;SDS011;63750;52.418;20.742;2023-05-07T09:54:17;4.20;;;3.10;;
75171;SDS011;63750;52.418;20.742;2023-05-07T09:56:45;3.40;;;3.10;;
75171;SDS011;63750;52.418;20.742;2023-05-07T09:59:15;3.20;;;2.90;;
75171;SDS011;63750;52.418;20.742;2023-05-07T10:01:43;3.20;;;2.80;;
75171;SDS011;63750;52.418;20.742;2023-05-07T10:04:11;3.30;;;3.00;;
75171;SDS011;63750;52.418;20.742;2023-05-07T10:06:39;3.20;;;2.90;;
75171;SDS011;63750;52.418;20.742;2023-05-07T10:09:08;3.90;;;3.40;;
75171;SDS011;63750;52.418;20.742;2023-05-07T10:11:36;3.30;;;3.00;;
75171;SDS011;63750;52.418;20.742;2023-05-07T10:14:03;4.50;;;2.90;;
75171;SDS011;63750;52.418;20.742;2023-05-07T10:16:31;3.40;;;3.10;;
75171;SDS011;63750;52.418;20.742;2023-05-07T10:19:00;3.30;;;3.00;;
75171;SDS011;63750;52.418;20.742;2023-05-07T10:21:29;4.30;;;3.30;;
75171;SDS011;63750;52.418;20.742;2023-05-07T10:23:58;3.40;;;3.10;;
75171;SDS011;63750;52.418;20.742;2023-05-07T10:26:28;3.60;;;3.20;;
75171;SDS011;63750;52.418;20.742;2023-05-07T10:28:58;4.00;;;3.40;;
75171;SDS011;63750;52.418;20.742;2023-05-07T10:31:37;3.30;;;3.00;;
75171;SDS011;63750;52.418;20.742;2023-05-07T10:34:23;3.50;;;3.20;;
75171;SDS011;63750;52.418;20.742;2023-05-07T10:36:54;3.40;;;3.10;;
75171;SDS011;63750;52.418;20.742;2023-05-07T10:39:21;5.90;;;3.30;;
75171;SDS011;63750;52.418;20.742;2023-05-07T10:41:49;3.20;;;2.80;;
75171;SDS011;63750;52.418;20.742;2023-05-07T10:44:25;4.80;;;3.60;;
75171;SDS011;63750;52.418;20.742;2023-05-07T10:47:06;3.70;;;3.20;;
75171;SDS011;63750;52.418;20.742;2023-05-07T10:49:33;4.10;;;3.30;;
75171;SDS011;63750;52.418;20.742;2023-05-07T10:52:13;3.50;;;3.20;;
75171;SDS011;63750;52.418;20.742;2023-05-07T10:54:41;4.50;;;3.30;;
75171;SDS011;63750;52.418;20.742;2023-05-07T11:00:00;4.80;;;3.10;;
75171;SDS011;63750;52.418;20.742;2023-05-07T11:05:23;3.10;;;2.80;;
75171;SDS011;63750;52.418;20.742;2023-05-07T11:07:54;4.30;;;3.00;;
75171;SDS011;63750;52.418;20.742;2023-05-07T11:10:22;4.60;;;2.70;;
75171;SDS011;63750;52.418;20.742;2023-05-07T11:12:55;3.20;;;2.90;;
75171;SDS011;63750;52.418;20.742;2023-05-07T11:15:35;3.10;;;2.70;;
75171;SDS011;63750;52.418;20.742;2023-05-07T11:18:04;5.40;;;3.00;;
75171;SDS011;63750;52.418;20.742;2023-05-07T11:20:51;4.40;;;2.90;;
75171;SDS011;63750;52.418;20.742;2023-05-07T11:26:47;3.00;;;2.70;;
75171;SDS011;63750;52.418;20.742;2023-05-07T11:29:16;3.90;;;2.90;;
75171;SDS011;63750;52.418;20.742;2023-05-07T11:31:43;4.80;;;3.10;;
75171;SDS011;63750;52.418;20.742;2023-05-07T11:34:15;4.80;;;3.00;;
75171;SDS011;63750;52.418;20.742;2023-05-07T11:36:48;3.20;;;2.90;;
75171;SDS011;63750;52.418;20.742;2023-05-07T11:39:25;3.50;;;3.00;;
75171;SDS011;63750;52.418;20.742;2023-05-07T11:41:53;3.20;;;2.90;;
75171;SDS011;63750;52.418;20.742;2023-05-07T11:44:20;4.00;;;3.00;;
75171;SDS011;63750;52.418;20.742;2023-05-07T11:46:48;3.80;;;3.10;;
75171;SDS011;63750;52.418;20.742;2023-05-07T11:49:15;3.60;;;3.30;;
75171;SDS011;63750;52.418;20.742;2023-05-07T11:51:42;3.10;;;2.80;;
75171;SDS011;63750;52.418;20.742;2023-05-07T11:54:09;3.00;;;2.80;;
75171;SDS011;63750;52.418;20.742;2023-05-07T11:56:37;4.30;;;2.70;;
75171;SDS011;63750;52.418;20.742;2023-05-07T11:59:04;3.30;;;3.00;;
75171;SDS011;63750;52.418;20.742;2023-05-07T12:01:31;3.00;;;2.80;;
75171;SDS011;63750;52.418;20.742;2023-05-07T12:04:02;3.70;;;2.80;;
75171;SDS011;63750;52.418;20.742;2023-05-07T12:06:29;3.20;;;2.80;;
75171;SDS011;63750;52.418;20.742;2023-05-07T12:08:56;3.00;;;2.80;;
75171;SDS011;63750;52.418;20.742;2023-05-07T12:11:24;3.90;;;3.30;;
75171;SDS011;63750;52.418;20.742;2023-05-07T12:13:51;3.40;;;3.10;;
75171;SDS011;63750;52.418;20.742;2023-05-07T12:16:20;3.10;;;2.80;;
75171;SDS011;63750;52.418;20.742;2023-05-07T12:18:47;3.60;;;2.90;;
75171;SDS011;63750;52.418;20.742;2023-05-07T12:21:15;3.40;;;3.00;;
75171;SDS011;63750;52.418;20.742;2023-05-07T12:23:43;3.60;;;3.30;;
75171;SDS011;63750;52.418;20.742;2023-05-07T12:26:10;3.20;;;2.90;;
75171;SDS011;63750;52.418;20.742;2023-05-07T12:28:38;4.60;;;3.50;;
75171;SDS011;63750;52.418;20.742;2023-05-07T12:31:05;4.40;;;3.30;;
75171;SDS011;63750;52.418;20.742;2023-05-07T12:33:34;3.90;;;3.20;;
75171;SDS011;63750;52.418;20.742;2023-05-07T12:36:03;3.90;;;3.50;;
75171;SDS011;63750;52.418;20.742;2023-05-07T12:38:34;3.80;;;3.40;;
75171;SDS011;63750;52.418;20.742;2023-05-07T12:41:02;4.00;;;3.50;;
75171;SDS011;63750;52.418;20.742;2023-05-07T12:43:30;3.60;;;3.30;;
75171;SDS011;63750;52.418;20.742;2023-05-07T12:45:59;3.50;;;3.20;;
75171;SDS011;63750;52.418;20.742;2023-05-07T12:48:29;4.70;;;3.50;;
75171;SDS011;63750;52.418;20.742;2023-05-07T12:50:56;4.80;;;3.80;;
75171;SDS011;63750;52.418;20.742;2023-05-07T12:53:25;5.20;;;4.40;;
75171;SDS011;63750;52.418;20.742;2023-05-07T12:55:54;3.10;;;2.60;;
75171;SDS011;63750;52.418;20.742;2023-05-07T12:58:24;8.60;;;7.30;;
75171;SDS011;63750;52.418;20.742;2023-05-07T13:00:51;7.20;;;6.30;;
75171;SDS011;63750;52.418;20.742;2023-05-07T13:03:22;10.90;;;8.60;;
75171;SDS011;63750;52.418;20.742;2023-05-07T13:05:51;7.40;;;5.70;;
75171;SDS011;63750;52.418;20.742;2023-05-07T13:08:26;6.60;;;6.00;;
75171;SDS011;63750;52.418;20.742;2023-05-07T13:10:55;10.20;;;7.30;;
75171;SDS011;63750;52.418;20.742;2023-05-07T13:13:22;4.00;;;3.60;;
75171;SDS011;63750;52.418;20.742;2023-05-07T13:15:49;6.00;;;3.00;;
75171;SDS011;63750;52.418;20.742;2023-05-07T13:18:16;8.40;;;5.10;;
75171;SDS011;63750;52.418;20.742;2023-05-07T13:20:43;4.50;;;3.50;;
75171;SDS011;63750;52.418;20.742;2023-05-07T13:23:10;6.90;;;4.30;;
75171;SDS011;63750;52.418;20.742;2023-05-07T13:25:37;5.40;;;3.60;;
75171;SDS011;63750;52.418;20.742;2023-05-07T13:28:04;3.70;;;3.40;;
75171;SDS011;63750;52.418;20.742;2023-05-07T13:30:31;5.90;;;4.60;;
75171;SDS011;63750;52.418;20.742;2023-05-07T13:32:58;7.10;;;5.40;;
75171;SDS011;63750;52.418;20.742;2023-05-07T13:35:26;3.60;;;3.00;;
75171;SDS011;63750;52.418;20.742;2023-05-07T13:37:53;3.90;;;3.50;;
75171;SDS011;63750;52.418;20.742;2023-05-07T13:40:20;3.70;;;3.00;;
75171;SDS011;63750;52.418;20.742;2023-05-07T13:42:47;7.10;;;5.20;;
75171;SDS011;63750;52.418;20.742;2023-05-07T13:45:15;4.40;;;3.90;;
75171;SDS011;63750;52.418;20.742;2023-05-07T13:47:42;3.40;;;2.80;;
75171;SDS011;63750;52.418;20.742;2023-05-07T13:50:10;3.50;;;3.20;;
75171;SDS011;63750;52.418;20.742;2023-05-07T13:52:37;5.50;;;4.70;;
75171;SDS011;63750;52.418;20.742;2023-05-07T13:55:06;4.40;;;4.00;;
75171;SDS011;63750;52.418;20.742;2023-05-07T13:57:34;4.40;;;3.50;;
75171;SDS011;63750;52.418;20.742;2023-05-07T14:00:01;3.00;;;2.70;;
75171;SDS011;63750;52.418;20.742;2023-05-07T14:02:28;4.00;;;3.00;;
75171;SDS011;63750;52.418;20.742;2023-05-07T14:04:55;4.80;;;2.80;;
75171;SDS011;63750;52.418;20.742;2023-05-07T14:07:22;3.80;;;3.40;;
75171;SDS011;63750;52.418;20.742;2023-05-07T14:09:49;4.70;;;3.50;;
75171;SDS011;63750;52.418;20.742;2023-05-07T14:12:16;4.40;;;3.10;;
75171;SDS011;63750;52.418;20.742;2023-05-07T14:14:43;3.30;;;3.00;;
75171;SDS011;63750;52.418;20.742;2023-05-07T14:17:10;3.40;;;3.10;;
75171;SDS011;63750;52.418;20.742;2023-05-07T14:19:37;3.40;;;2.90;;
75171;SDS011;63750;52.418;20.742;2023-05-07T14:22:04;3.20;;;2.90;;
75171;SDS011;63750;52.418;20.742;2023-05-07T14:24:31;3.30;;;3.00;;
75171;SDS011;63750;52.418;20.742;2023-05-07T14:26:58;3.30;;;2.70;;
75171;SDS011;63750;52.418;20.742;2023-05-07T14:29:25;3.50;;;2.90;;
75171;SDS011;63750;52.418;20.742;2023-05-07T14:31:52;3.80;;;2.90;;
75171;SDS011;63750;52.418;20.742;2023-05-07T14:34:19;5.50;;;3.60;;
75171;SDS011;63750;52.418;20.742;2023-05-07T14:36:46;3.10;;;2.70;;
75171;SDS011;63750;52.418;20.742;2023-05-07T14:39:12;4.30;;;2.70;;
75171;SDS011;63750;52.418;20.742;2023-05-07T14:41:40;3.00;;;2.80;;
75171;SDS011;63750;52.418;20.742;2023-05-07T14:44:06;3.00;;;2.70;;
75171;SDS011;63750;52.418;20.742;2023-05-07T14:46:33;3.10;;;2.80;;